sensor_id;sensor_type;location;lat;lon;timestamp;P1;durP1;ratioP1;P2;durP2;ratioP2
20772;SDS011;10546;50.674;4.616;2022-10-16T00:01:07;4.90;;;2.17;;
20772;SDS011;10546;50.674;4.616;2022-10-16T00:03:37;7.47;;;2.20;;
20772;SDS011;10546;50.674;4.616;2022-10-16T00:06:04;4.63;;;2.27;;
20772;SDS011;10546;50.674;4.616;2022-10-16T00:08:30;4.23;;;1.97;;
20772;SDS011;10546;50.674;4.616;2022-10-16T00:11:03;3.30;;;2.03;;
20772;SDS011;10546;50.674;4.616;2022-10-16T00:13:34;9.10;;;1.90;;
20772;SDS011;10546;50.674;4.616;2022-10-16T00:16:01;3.93;;;1.83;;
20772;SDS011;10546;50.674;4.616;2022-10-16T00:18:27;1.83;;;1.33;;
20772;SDS011;10546;50.674;4.616;2022-10-16T00:20:53;3.47;;;1.83;;
20772;SDS011;10546;50.674;4.616;2022-10-16T00:23:19;2.27;;;1.60;;
20772;SDS011;10546;50.674;4.616;2022-10-16T00:25:53;4.63;;;2.10;;
20772;SDS011;10546;50.674;4.616;2022-10-16T00:28:22;2.30;;;1.50;;
20772;SDS011;10546;50.674;4.616;2022-10-16T00:30:48;2.30;;;1.70;;
20772;SDS011;10546;50.674;4.616;2022-10-16T00:33:13;8.43;;;1.70;;
20772;SDS011;10546;50.674;4.616;2022-10-16T00:35:39;4.87;;;1.80;;
20772;SDS011;10546;50.674;4.616;2022-10-16T00:38:04;2.37;;;1.70;;
20772;SDS011;10546;50.674;4.616;2022-10-16T00:40:30;2.63;;;1.60;;
20772;SDS011;10546;50.674;4.616;2022-10-16T00:42:56;2.97;;;1.60;;
20772;SDS011;10546;50.674;4.616;2022-10-16T00:45:22;1.80;;;1.60;;
20772;SDS011;10546;50.674;4.616;2022-10-16T00:47:49;4.03;;;1.70;;
20772;SDS011;10546;50.674;4.616;2022-10-16T00:50:32;3.53;;;1.70;;
20772;SDS011;10546;50.674;4.616;2022-10-16T00:52:59;2.37;;;1.33;;
20772;SDS011;10546;50.674;4.616;2022-10-16T00:55:26;2.30;;;1.50;;
20772;SDS011;10546;50.674;4.616;2022-10-16T00:57:54;4.43;;;2.20;;
20772;SDS011;10546;50.674;4.616;2022-10-16T01:00:23;3.23;;;1.60;;
20772;SDS011;10546;50.674;4.616;2022-10-16T01:05:21;3.13;;;1.50;;
20772;SDS011;10546;50.674;4.616;2022-10-16T01:13:58;5.00;;;1.40;;
20772;SDS011;10546;50.674;4.616;2022-10-16T01:16:38;2.13;;;1.63;;
20772;SDS011;10546;50.674;4.616;2022-10-16T01:19:16;3.60;;;1.87;;
20772;SDS011;10546;50.674;4.616;2022-10-16T01:22:01;4.47;;;1.80;;
20772;SDS011;10546;50.674;4.616;2022-10-16T01:30:17;2.70;;;1.60;;
20772;SDS011;10546;50.674;4.616;2022-10-16T01:32:59;2.13;;;1.53;;
20772;SDS011;10546;50.674;4.616;2022-10-16T01:35:35;6.93;;;1.80;;
20772;SDS011;10546;50.674;4.616;2022-10-16T01:38:04;3.03;;;1.73;;
20772;SDS011;10546;50.674;4.616;2022-10-16T01:40:32;3.83;;;1.70;;
20772;SDS011;10546;50.674;4.616;2022-10-16T01:43:05;4.13;;;1.83;;
20772;SDS011;10546;50.674;4.616;2022-10-16T01:45:37;2.17;;;1.57;;
20772;SDS011;10546;50.674;4.616;2022-10-16T01:48:05;3.93;;;1.87;;
20772;SDS011;10546;50.674;4.616;2022-10-16T01:50:35;2.50;;;1.87;;
20772;SDS011;10546;50.674;4.616;2022-10-16T01:53:05;3.53;;;1.57;;
20772;SDS011;10546;50.674;4.616;2022-10-16T01:55:33;2.50;;;1.63;;
20772;SDS011;10546;50.674;4.616;2022-10-16T01:58:02;2.60;;;1.70;;
20772;SDS011;10546;50.674;4.616;2022-10-16T02:00:30;6.23;;;1.80;;
20772;SDS011;10546;50.674;4.616;2022-10-16T02:02:56;6.23;;;1.97;;
20772;SDS011;10546;50.674;4.616;2022-10-16T02:05:28;5.07;;;1.73;;
20772;SDS011;10546;50.674;4.616;2022-10-16T02:08:15;4.23;;;1.83;;
20772;SDS011;10546;50.674;4.616;2022-10-16T02:10:41;4.10;;;2.00;;
20772;SDS011;10546;50.674;4.616;2022-10-16T02:13:11;3.67;;;1.97;;
20772;SDS011;10546;50.674;4.616;2022-10-16T02:16:10;3.27;;;2.17;;
20772;SDS011;10546;50.674;4.616;2022-10-16T02:18:38;3.23;;;1.70;;
20772;SDS011;10546;50.674;4.616;2022-10-16T02:23:54;3.97;;;2.00;;
20772;SDS011;10546;50.674;4.616;2022-10-16T02:26:45;4.63;;;2.00;;
20772;SDS011;10546;50.674;4.616;2022-10-16T02:29:17;3.77;;;2.10;;
20772;SDS011;10546;50.674;4.616;2022-10-16T02:31:49;3.50;;;2.03;;
20772;SDS011;10546;50.674;4.616;2022-10-16T02:34:18;5.53;;;2.50;;
20772;SDS011;10546;50.674;4.616;2022-10-16T02:36:48;7.13;;;2.50;;
20772;SDS011;10546;50.674;4.616;2022-10-16T02:39:15;6.70;;;2.57;;
20772;SDS011;10546;50.674;4.616;2022-10-16T02:41:43;6.33;;;2.63;;
20772;SDS011;10546;50.674;4.616;2022-10-16T02:44:10;7.10;;;2.70;;
20772;SDS011;10546;50.674;4.616;2022-10-16T02:46:38;6.90;;;2.57;;
20772;SDS011;10546;50.674;4.616;2022-10-16T02:49:04;7.60;;;3.03;;
20772;SDS011;10546;50.674;4.616;2022-10-16T02:51:30;8.80;;;3.33;;
20772;SDS011;10546;50.674;4.616;2022-10-16T02:53:56;6.77;;;2.80;;
20772;SDS011;10546;50.674;4.616;2022-10-16T02:56:21;6.60;;;2.60;;
20772;SDS011;10546;50.674;4.616;2022-10-16T02:58:47;7.53;;;3.27;;
20772;SDS011;10546;50.674;4.616;2022-10-16T03:01:13;7.90;;;3.20;;
20772;SDS011;10546;50.674;4.616;2022-10-16T03:03:39;8.37;;;2.83;;
20772;SDS011;10546;50.674;4.616;2022-10-16T03:06:06;10.13;;;3.10;;
20772;SDS011;10546;50.674;4.616;2022-10-16T03:08:31;9.10;;;2.83;;
20772;SDS011;10546;50.674;4.616;2022-10-16T03:10:59;8.37;;;2.80;;
20772;SDS011;10546;50.674;4.616;2022-10-16T03:13:25;7.30;;;3.20;;
20772;SDS011;10546;50.674;4.616;2022-10-16T03:15:50;8.73;;;2.90;;
20772;SDS011;10546;50.674;4.616;2022-10-16T03:18:16;7.47;;;3.30;;
20772;SDS011;10546;50.674;4.616;2022-10-16T03:20:45;10.30;;;3.80;;
20772;SDS011;10546;50.674;4.616;2022-10-16T03:23:10;6.33;;;3.13;;
20772;SDS011;10546;50.674;4.616;2022-10-16T03:25:36;8.63;;;3.17;;
20772;SDS011;10546;50.674;4.616;2022-10-16T03:28:02;7.47;;;3.73;;
20772;SDS011;10546;50.674;4.616;2022-10-16T03:30:28;14.23;;;4.30;;
20772;SDS011;10546;50.674;4.616;2022-10-16T03:32:54;8.77;;;4.10;;
20772;SDS011;10546;50.674;4.616;2022-10-16T03:35:20;6.90;;;3.47;;
20772;SDS011;10546;50.674;4.616;2022-10-16T03:37:46;12.33;;;3.80;;
20772;SDS011;10546;50.674;4.616;2022-10-16T03:40:11;12.37;;;4.33;;
20772;SDS011;10546;50.674;4.616;2022-10-16T03:42:38;10.07;;;4.20;;
20772;SDS011;10546;50.674;4.616;2022-10-16T03:45:04;10.77;;;3.83;;
20772;SDS011;10546;50.674;4.616;2022-10-16T03:47:30;7.60;;;3.77;;
20772;SDS011;10546;50.674;4.616;2022-10-16T03:49:58;8.30;;;3.93;;
20772;SDS011;10546;50.674;4.616;2022-10-16T03:52:24;10.73;;;3.30;;
20772;SDS011;10546;50.674;4.616;2022-10-16T03:54:50;11.20;;;3.80;;
20772;SDS011;10546;50.674;4.616;2022-10-16T03:57:18;6.50;;;3.57;;
20772;SDS011;10546;50.674;4.616;2022-10-16T03:59:50;8.60;;;4.47;;
20772;SDS011;10546;50.674;4.616;2022-10-16T04:02:17;7.40;;;3.50;;
20772;SDS011;10546;50.674;4.616;2022-10-16T04:04:42;5.43;;;3.57;;
20772;SDS011;10546;50.674;4.616;2022-10-16T04:07:09;8.63;;;4.23;;
20772;SDS011;10546;50.674;4.616;2022-10-16T04:10:10;6.33;;;3.73;;
20772;SDS011;10546;50.674;4.616;2022-10-16T04:12:46;6.63;;;3.63;;
20772;SDS011;10546;50.674;4.616;2022-10-16T04:15:11;6.33;;;4.03;;
20772;SDS011;10546;50.674;4.616;2022-10-16T04:17:37;5.57;;;3.77;;
20772;SDS011;10546;50.674;4.616;2022-10-16T04:20:03;6.40;;;4.10;;
20772;SDS011;10546;50.674;4.616;2022-10-16T04:22:30;9.40;;;4.20;;
20772;SDS011;10546;50.674;4.616;2022-10-16T04:24:59;6.93;;;4.03;;
20772;SDS011;10546;50.674;4.616;2022-10-16T04:27:30;7.33;;;4.00;;
20772;SDS011;10546;50.674;4.616;2022-10-16T04:29:57;6.83;;;3.80;;
20772;SDS011;10546;50.674;4.616;2022-10-16T04:32:24;6.20;;;3.87;;
20772;SDS011;10546;50.674;4.616;2022-10-16T04:34:56;8.27;;;3.97;;
20772;SDS011;10546;50.674;4.616;2022-10-16T04:37:24;8.03;;;4.00;;
20772;SDS011;10546;50.674;4.616;2022-10-16T04:39:51;8.80;;;4.20;;
20772;SDS011;10546;50.674;4.616;2022-10-16T04:42:20;9.63;;;4.83;;
20772;SDS011;10546;50.674;4.616;2022-10-16T04:45:12;15.27;;;5.33;;
20772;SDS011;10546;50.674;4.616;2022-10-16T04:47:45;10.70;;;5.47;;
20772;SDS011;10546;50.674;4.616;2022-10-16T04:50:15;11.57;;;5.47;;
20772;SDS011;10546;50.674;4.616;2022-10-16T04:52:42;13.60;;;6.03;;
20772;SDS011;10546;50.674;4.616;2022-10-16T04:55:08;12.07;;;6.03;;
20772;SDS011;10546;50.674;4.616;2022-10-16T04:57:33;14.57;;;6.03;;
20772;SDS011;10546;50.674;4.616;2022-10-16T05:00:01;15.00;;;6.30;;
20772;SDS011;10546;50.674;4.616;2022-10-16T05:02:28;15.27;;;6.17;;
20772;SDS011;10546;50.674;4.616;2022-10-16T05:04:53;11.77;;;6.07;;
20772;SDS011;10546;50.674;4.616;2022-10-16T05:07:25;12.03;;;5.63;;
20772;SDS011;10546;50.674;4.616;2022-10-16T05:10:00;12.13;;;5.17;;
20772;SDS011;10546;50.674;4.616;2022-10-16T05:12:25;12.80;;;5.60;;
20772;SDS011;10546;50.674;4.616;2022-10-16T05:14:51;11.93;;;5.77;;
20772;SDS011;10546;50.674;4.616;2022-10-16T05:17:16;14.90;;;5.77;;
20772;SDS011;10546;50.674;4.616;2022-10-16T05:19:43;15.37;;;5.73;;
20772;SDS011;10546;50.674;4.616;2022-10-16T05:22:09;12.80;;;5.77;;
20772;SDS011;10546;50.674;4.616;2022-10-16T05:24:35;12.77;;;5.83;;
20772;SDS011;10546;50.674;4.616;2022-10-16T05:27:00;10.93;;;5.23;;
20772;SDS011;10546;50.674;4.616;2022-10-16T05:29:26;11.27;;;5.77;;
20772;SDS011;10546;50.674;4.616;2022-10-16T05:31:52;10.33;;;4.77;;
20772;SDS011;10546;50.674;4.616;2022-10-16T05:34:18;12.43;;;4.73;;
20772;SDS011;10546;50.674;4.616;2022-10-16T05:37:00;10.60;;;5.07;;
20772;SDS011;10546;50.674;4.616;2022-10-16T05:39:27;10.37;;;5.17;;
20772;SDS011;10546;50.674;4.616;2022-10-16T05:45:36;10.20;;;4.60;;
20772;SDS011;10546;50.674;4.616;2022-10-16T05:52:02;9.50;;;4.80;;
20772;SDS011;10546;50.674;4.616;2022-10-16T05:54:38;7.37;;;4.50;;
20772;SDS011;10546;50.674;4.616;2022-10-16T05:57:59;10.03;;;4.83;;
20772;SDS011;10546;50.674;4.616;2022-10-16T06:00:30;9.97;;;4.87;;
20772;SDS011;10546;50.674;4.616;2022-10-16T06:02:57;11.80;;;4.60;;
20772;SDS011;10546;50.674;4.616;2022-10-16T06:05:28;11.73;;;4.90;;
20772;SDS011;10546;50.674;4.616;2022-10-16T06:08:30;8.63;;;4.70;;
20772;SDS011;10546;50.674;4.616;2022-10-16T06:11:31;11.47;;;4.67;;
20772;SDS011;10546;50.674;4.616;2022-10-16T06:14:45;10.07;;;5.00;;
20772;SDS011;10546;50.674;4.616;2022-10-16T06:24:17;9.73;;;4.60;;
20772;SDS011;10546;50.674;4.616;2022-10-16T06:27:10;8.23;;;4.63;;
20772;SDS011;10546;50.674;4.616;2022-10-16T06:32:47;10.47;;;5.00;;
20772;SDS011;10546;50.674;4.616;2022-10-16T06:35:18;16.07;;;5.37;;
20772;SDS011;10546;50.674;4.616;2022-10-16T06:38:00;7.33;;;5.00;;
20772;SDS011;10546;50.674;4.616;2022-10-16T06:40:31;7.73;;;5.40;;
20772;SDS011;10546;50.674;4.616;2022-10-16T06:42:57;12.80;;;5.40;;
20772;SDS011;10546;50.674;4.616;2022-10-16T06:45:30;7.67;;;4.67;;
20772;SDS011;10546;50.674;4.616;2022-10-16T06:48:15;9.57;;;5.60;;
20772;SDS011;10546;50.674;4.616;2022-10-16T06:50:54;9.43;;;5.30;;
20772;SDS011;10546;50.674;4.616;2022-10-16T06:53:35;9.23;;;5.50;;
20772;SDS011;10546;50.674;4.616;2022-10-16T06:56:11;12.70;;;5.93;;
20772;SDS011;10546;50.674;4.616;2022-10-16T06:58:45;9.23;;;5.20;;
20772;SDS011;10546;50.674;4.616;2022-10-16T07:01:11;15.73;;;8.47;;
20772;SDS011;10546;50.674;4.616;2022-10-16T07:03:53;8.70;;;5.80;;
20772;SDS011;10546;50.674;4.616;2022-10-16T07:06:38;8.67;;;5.10;;
20772;SDS011;10546;50.674;4.616;2022-10-16T07:09:25;6.37;;;4.43;;
20772;SDS011;10546;50.674;4.616;2022-10-16T07:11:54;8.17;;;5.30;;
20772;SDS011;10546;50.674;4.616;2022-10-16T07:14:20;6.10;;;4.40;;
20772;SDS011;10546;50.674;4.616;2022-10-16T07:17:12;5.80;;;3.50;;
20772;SDS011;10546;50.674;4.616;2022-10-16T07:20:16;6.07;;;2.75;;
20772;SDS011;10546;50.674;4.616;2022-10-16T07:22:58;5.53;;;2.30;;
20772;SDS011;10546;50.674;4.616;2022-10-16T07:25:28;8.75;;;4.20;;
20772;SDS011;10546;50.674;4.616;2022-10-16T07:28:18;7.30;;;3.47;;
20772;SDS011;10546;50.674;4.616;2022-10-16T07:30:45;3.92;;;2.20;;
20772;SDS011;10546;50.674;4.616;2022-10-16T07:33:17;8.50;;;3.95;;
20772;SDS011;10546;50.674;4.616;2022-10-16T07:35:50;4.35;;;2.55;;
20772;SDS011;10546;50.674;4.616;2022-10-16T07:38:19;4.28;;;2.65;;
20772;SDS011;10546;50.674;4.616;2022-10-16T07:40:57;5.03;;;2.90;;
20772;SDS011;10546;50.674;4.616;2022-10-16T07:43:49;5.68;;;3.03;;
20772;SDS011;10546;50.674;4.616;2022-10-16T07:46:17;7.32;;;2.90;;
20772;SDS011;10546;50.674;4.616;2022-10-16T07:48:52;7.45;;;4.50;;
20772;SDS011;10546;50.674;4.616;2022-10-16T07:51:23;4.70;;;2.50;;
20772;SDS011;10546;50.674;4.616;2022-10-16T07:54:00;8.55;;;4.13;;
20772;SDS011;10546;50.674;4.616;2022-10-16T07:56:31;7.20;;;3.83;;
20772;SDS011;10546;50.674;4.616;2022-10-16T07:59:13;4.57;;;2.88;;
20772;SDS011;10546;50.674;4.616;2022-10-16T08:01:49;7.68;;;3.58;;
20772;SDS011;10546;50.674;4.616;2022-10-16T08:05:00;8.48;;;3.70;;
20772;SDS011;10546;50.674;4.616;2022-10-16T08:07:31;8.73;;;3.42;;
20772;SDS011;10546;50.674;4.616;2022-10-16T08:10:00;4.43;;;2.97;;
20772;SDS011;10546;50.674;4.616;2022-10-16T08:12:30;7.45;;;2.65;;
20772;SDS011;10546;50.674;4.616;2022-10-16T08:14:56;8.00;;;3.30;;
20772;SDS011;10546;50.674;4.616;2022-10-16T08:17:33;6.28;;;2.55;;
20772;SDS011;10546;50.674;4.616;2022-10-16T08:20:15;5.35;;;2.15;;
20772;SDS011;10546;50.674;4.616;2022-10-16T08:23:03;3.30;;;2.10;;
20772;SDS011;10546;50.674;4.616;2022-10-16T08:26:26;5.05;;;2.17;;
20772;SDS011;10546;50.674;4.616;2022-10-16T08:29:09;6.97;;;3.33;;
20772;SDS011;10546;50.674;4.616;2022-10-16T08:31:55;6.20;;;2.67;;
20772;SDS011;10546;50.674;4.616;2022-10-16T08:34:48;3.90;;;1.90;;
20772;SDS011;10546;50.674;4.616;2022-10-16T08:37:17;5.43;;;1.70;;
20772;SDS011;10546;50.674;4.616;2022-10-16T08:39:44;3.55;;;1.70;;
20772;SDS011;10546;50.674;4.616;2022-10-16T08:42:19;8.30;;;2.10;;
20772;SDS011;10546;50.674;4.616;2022-10-16T08:48:06;7.88;;;2.10;;
20772;SDS011;10546;50.674;4.616;2022-10-16T08:50:57;6.22;;;2.00;;
20772;SDS011;10546;50.674;4.616;2022-10-16T08:56:26;4.45;;;1.70;;
20772;SDS011;10546;50.674;4.616;2022-10-16T08:58:57;5.40;;;1.60;;
20772;SDS011;10546;50.674;4.616;2022-10-16T09:01:40;4.75;;;1.70;;
20772;SDS011;10546;50.674;4.616;2022-10-16T09:07:55;4.57;;;1.60;;
20772;SDS011;10546;50.674;4.616;2022-10-16T09:16:51;4.85;;;1.90;;
20772;SDS011;10546;50.674;4.616;2022-10-16T09:20:03;6.85;;;1.52;;
20772;SDS011;10546;50.674;4.616;2022-10-16T09:26:02;5.57;;;1.48;;
20772;SDS011;10546;50.674;4.616;2022-10-16T09:28:41;3.17;;;1.73;;
20772;SDS011;10546;50.674;4.616;2022-10-16T09:31:18;2.42;;;0.93;;
20772;SDS011;10546;50.674;4.616;2022-10-16T09:37:05;4.15;;;1.40;;
20772;SDS011;10546;50.674;4.616;2022-10-16T09:39:48;1.60;;;1.00;;
20772;SDS011;10546;50.674;4.616;2022-10-16T09:42:22;4.35;;;1.23;;
20772;SDS011;10546;50.674;4.616;2022-10-16T09:48:12;5.00;;;1.20;;
20772;SDS011;10546;50.674;4.616;2022-10-16T09:50:54;4.25;;;1.40;;
20772;SDS011;10546;50.674;4.616;2022-10-16T09:53:25;7.38;;;1.35;;
20772;SDS011;10546;50.674;4.616;2022-10-16T09:56:04;4.72;;;0.90;;
20772;SDS011;10546;50.674;4.616;2022-10-16T09:58:41;3.05;;;0.90;;
20772;SDS011;10546;50.674;4.616;2022-10-16T10:01:14;4.25;;;1.02;;
20772;SDS011;10546;50.674;4.616;2022-10-16T10:03:41;4.53;;;0.80;;
20772;SDS011;10546;50.674;4.616;2022-10-16T10:06:25;2.42;;;0.80;;
20772;SDS011;10546;50.674;4.616;2022-10-16T10:17:22;5.78;;;1.23;;
20772;SDS011;10546;50.674;4.616;2022-10-16T10:23:00;4.22;;;0.95;;
20772;SDS011;10546;50.674;4.616;2022-10-16T10:26:16;3.10;;;1.05;;
20772;SDS011;10546;50.674;4.616;2022-10-16T10:28:54;5.28;;;1.40;;
20772;SDS011;10546;50.674;4.616;2022-10-16T10:31:42;2.85;;;1.10;;
20772;SDS011;10546;50.674;4.616;2022-10-16T10:39:36;5.45;;;1.58;;
20772;SDS011;10546;50.674;4.616;2022-10-16T10:47:41;2.30;;;0.90;;
20772;SDS011;10546;50.674;4.616;2022-10-16T10:56:45;4.93;;;0.90;;
20772;SDS011;10546;50.674;4.616;2022-10-16T11:02:37;2.60;;;1.00;;
20772;SDS011;10546;50.674;4.616;2022-10-16T11:08:00;3.03;;;0.75;;
20772;SDS011;10546;50.674;4.616;2022-10-16T11:10:50;5.82;;;1.00;;
20772;SDS011;10546;50.674;4.616;2022-10-16T11:16:21;4.68;;;1.75;;
20772;SDS011;10546;50.674;4.616;2022-10-16T11:19:11;2.13;;;0.73;;
20772;SDS011;10546;50.674;4.616;2022-10-16T11:22:01;4.28;;;0.90;;
20772;SDS011;10546;50.674;4.616;2022-10-16T11:27:47;5.22;;;1.83;;
20772;SDS011;10546;50.674;4.616;2022-10-16T11:30:39;2.90;;;0.93;;
20772;SDS011;10546;50.674;4.616;2022-10-16T11:33:22;2.80;;;0.60;;
20772;SDS011;10546;50.674;4.616;2022-10-16T11:38:43;2.13;;;0.70;;
20772;SDS011;10546;50.674;4.616;2022-10-16T11:44:06;5.13;;;1.30;;
20772;SDS011;10546;50.674;4.616;2022-10-16T11:46:35;5.45;;;1.52;;
20772;SDS011;10546;50.674;4.616;2022-10-16T11:49:13;2.72;;;1.00;;
20772;SDS011;10546;50.674;4.616;2022-10-16T11:51:45;3.35;;;1.23;;
20772;SDS011;10546;50.674;4.616;2022-10-16T11:56:58;2.92;;;1.30;;
20772;SDS011;10546;50.674;4.616;2022-10-16T11:59:44;6.05;;;1.90;;
20772;SDS011;10546;50.674;4.616;2022-10-16T12:02:40;4.65;;;1.58;;
20772;SDS011;10546;50.674;4.616;2022-10-16T12:05:06;5.38;;;1.60;;
20772;SDS011;10546;50.674;4.616;2022-10-16T12:07:51;8.77;;;1.73;;
20772;SDS011;10546;50.674;4.616;2022-10-16T12:10:22;3.05;;;1.27;;
20772;SDS011;10546;50.674;4.616;2022-10-16T12:12:50;3.17;;;1.40;;
20772;SDS011;10546;50.674;4.616;2022-10-16T12:15:26;4.57;;;1.20;;
20772;SDS011;10546;50.674;4.616;2022-10-16T12:17:56;2.63;;;1.00;;
20772;SDS011;10546;50.674;4.616;2022-10-16T12:20:29;6.90;;;1.52;;
20772;SDS011;10546;50.674;4.616;2022-10-16T12:30:23;4.13;;;1.23;;
20772;SDS011;10546;50.674;4.616;2022-10-16T12:32:54;2.05;;;0.90;;
20772;SDS011;10546;50.674;4.616;2022-10-16T12:35:22;2.88;;;0.85;;
20772;SDS011;10546;50.674;4.616;2022-10-16T12:37:51;2.25;;;1.00;;
20772;SDS011;10546;50.674;4.616;2022-10-16T12:40:25;9.30;;;1.13;;
20772;SDS011;10546;50.674;4.616;2022-10-16T12:42:56;6.35;;;1.13;;
20772;SDS011;10546;50.674;4.616;2022-10-16T12:45:26;4.35;;;0.95;;
20772;SDS011;10546;50.674;4.616;2022-10-16T12:47:55;7.20;;;1.10;;
20772;SDS011;10546;50.674;4.616;2022-10-16T12:50:25;2.75;;;0.70;;
20772;SDS011;10546;50.674;4.616;2022-10-16T12:52:55;4.65;;;1.00;;
20772;SDS011;10546;50.674;4.616;2022-10-16T12:55:22;3.72;;;0.93;;
20772;SDS011;10546;50.674;4.616;2022-10-16T13:08:54;4.07;;;0.90;;
20772;SDS011;10546;50.674;4.616;2022-10-16T13:11:37;3.22;;;0.80;;
20772;SDS011;10546;50.674;4.616;2022-10-16T13:28:29;6.45;;;0.93;;
20772;SDS011;10546;50.674;4.616;2022-10-16T13:30:58;1.98;;;0.70;;
20772;SDS011;10546;50.674;4.616;2022-10-16T13:33:31;3.47;;;0.98;;
20772;SDS011;10546;50.674;4.616;2022-10-16T13:36:01;2.15;;;1.10;;
20772;SDS011;10546;50.674;4.616;2022-10-16T13:38:29;2.22;;;0.80;;
20772;SDS011;10546;50.674;4.616;2022-10-16T13:43:27;1.80;;;0.70;;
20772;SDS011;10546;50.674;4.616;2022-10-16T13:46:03;4.28;;;0.60;;
20772;SDS011;10546;50.674;4.616;2022-10-16T13:48:31;2.20;;;0.80;;
20772;SDS011;10546;50.674;4.616;2022-10-16T13:51:20;2.28;;;0.80;;
20772;SDS011;10546;50.674;4.616;2022-10-16T13:53:45;2.60;;;1.00;;
20772;SDS011;10546;50.674;4.616;2022-10-16T13:56:12;3.20;;;1.10;;
20772;SDS011;10546;50.674;4.616;2022-10-16T13:58:43;2.40;;;0.70;;
20772;SDS011;10546;50.674;4.616;2022-10-16T14:01:26;4.18;;;1.20;;
20772;SDS011;10546;50.674;4.616;2022-10-16T14:03:59;3.97;;;0.90;;
20772;SDS011;10546;50.674;4.616;2022-10-16T14:06:36;3.53;;;0.80;;
20772;SDS011;10546;50.674;4.616;2022-10-16T14:09:07;2.38;;;0.82;;
20772;SDS011;10546;50.674;4.616;2022-10-16T14:11:42;3.28;;;1.10;;
20772;SDS011;10546;50.674;4.616;2022-10-16T14:14:16;2.65;;;0.80;;
20772;SDS011;10546;50.674;4.616;2022-10-16T14:16:43;3.35;;;0.88;;
20772;SDS011;10546;50.674;4.616;2022-10-16T14:19:29;2.00;;;0.90;;
20772;SDS011;10546;50.674;4.616;2022-10-16T14:21:56;2.28;;;1.33;;
20772;SDS011;10546;50.674;4.616;2022-10-16T14:24:40;3.90;;;0.82;;
20772;SDS011;10546;50.674;4.616;2022-10-16T14:30:20;1.35;;;0.60;;
20772;SDS011;10546;50.674;4.616;2022-10-16T14:32:54;2.55;;;0.90;;
20772;SDS011;10546;50.674;4.616;2022-10-16T14:35:22;2.97;;;0.80;;
20772;SDS011;10546;50.674;4.616;2022-10-16T14:37:51;2.90;;;0.90;;
20772;SDS011;10546;50.674;4.616;2022-10-16T14:40:17;2.08;;;0.88;;
20772;SDS011;10546;50.674;4.616;2022-10-16T14:42:43;2.55;;;1.00;;
20772;SDS011;10546;50.674;4.616;2022-10-16T14:45:10;1.63;;;1.17;;
20772;SDS011;10546;50.674;4.616;2022-10-16T14:47:37;2.20;;;0.90;;
20772;SDS011;10546;50.674;4.616;2022-10-16T14:50:21;2.80;;;0.98;;
20772;SDS011;10546;50.674;4.616;2022-10-16T14:52:47;2.28;;;1.25;;
20772;SDS011;10546;50.674;4.616;2022-10-16T14:55:13;3.80;;;1.33;;
20772;SDS011;10546;50.674;4.616;2022-10-16T14:57:39;3.55;;;1.00;;
20772;SDS011;10546;50.674;4.616;2022-10-16T15:00:13;2.67;;;1.30;;
20772;SDS011;10546;50.674;4.616;2022-10-16T15:02:44;4.88;;;1.20;;
20772;SDS011;10546;50.674;4.616;2022-10-16T15:07:44;4.60;;;1.08;;
20772;SDS011;10546;50.674;4.616;2022-10-16T15:10:11;6.13;;;1.45;;
20772;SDS011;10546;50.674;4.616;2022-10-16T15:12:40;5.00;;;1.50;;
20772;SDS011;10546;50.674;4.616;2022-10-16T15:17:59;3.25;;;1.60;;
20772;SDS011;10546;50.674;4.616;2022-10-16T15:20:29;1.10;;;1.00;;
20772;SDS011;10546;50.674;4.616;2022-10-16T15:22:59;2.35;;;1.00;;
20772;SDS011;10546;50.674;4.616;2022-10-16T15:25:30;2.45;;;1.05;;
20772;SDS011;10546;50.674;4.616;2022-10-16T15:28:10;3.17;;;1.25;;
20772;SDS011;10546;50.674;4.616;2022-10-16T15:30:37;3.58;;;1.00;;
20772;SDS011;10546;50.674;4.616;2022-10-16T15:33:04;2.03;;;1.10;;
20772;SDS011;10546;50.674;4.616;2022-10-16T15:35:34;3.75;;;1.92;;
20772;SDS011;10546;50.674;4.616;2022-10-16T15:38:00;3.72;;;1.38;;
20772;SDS011;10546;50.674;4.616;2022-10-16T15:40:26;2.63;;;1.50;;
20772;SDS011;10546;50.674;4.616;2022-10-16T15:42:52;3.05;;;1.70;;
20772;SDS011;10546;50.674;4.616;2022-10-16T15:45:18;5.30;;;1.80;;
20772;SDS011;10546;50.674;4.616;2022-10-16T15:47:44;6.18;;;3.00;;
20772;SDS011;10546;50.674;4.616;2022-10-16T15:50:11;5.55;;;2.47;;
20772;SDS011;10546;50.674;4.616;2022-10-16T15:52:38;6.22;;;2.17;;
20772;SDS011;10546;50.674;4.616;2022-10-16T15:55:05;4.55;;;2.00;;
20772;SDS011;10546;50.674;4.616;2022-10-16T15:57:35;7.20;;;2.15;;
20772;SDS011;10546;50.674;4.616;2022-10-16T16:00:04;5.68;;;2.38;;
20772;SDS011;10546;50.674;4.616;2022-10-16T16:02:31;5.85;;;2.30;;
20772;SDS011;10546;50.674;4.616;2022-10-16T16:04:57;6.25;;;2.40;;
20772;SDS011;10546;50.674;4.616;2022-10-16T16:07:22;7.68;;;2.60;;
20772;SDS011;10546;50.674;4.616;2022-10-16T16:09:48;5.05;;;2.63;;
20772;SDS011;10546;50.674;4.616;2022-10-16T16:12:14;5.72;;;2.33;;
20772;SDS011;10546;50.674;4.616;2022-10-16T16:14:39;7.05;;;2.42;;
20772;SDS011;10546;50.674;4.616;2022-10-16T16:17:05;5.35;;;2.42;;
20772;SDS011;10546;50.674;4.616;2022-10-16T16:19:30;3.53;;;2.10;;
20772;SDS011;10546;50.674;4.616;2022-10-16T16:21:56;4.45;;;2.13;;
20772;SDS011;10546;50.674;4.616;2022-10-16T16:24:22;6.03;;;1.80;;
20772;SDS011;10546;50.674;4.616;2022-10-16T16:26:48;5.85;;;2.30;;
20772;SDS011;10546;50.674;4.616;2022-10-16T16:29:14;5.97;;;3.22;;
20772;SDS011;10546;50.674;4.616;2022-10-16T16:31:41;7.07;;;2.95;;
20772;SDS011;10546;50.674;4.616;2022-10-16T16:34:07;3.90;;;2.20;;
20772;SDS011;10546;50.674;4.616;2022-10-16T16:36:33;5.90;;;2.17;;
20772;SDS011;10546;50.674;4.616;2022-10-16T16:39:00;2.35;;;1.50;;
20772;SDS011;10546;50.674;4.616;2022-10-16T16:41:27;2.75;;;1.50;;
20772;SDS011;10546;50.674;4.616;2022-10-16T16:43:55;3.63;;;1.70;;
20772;SDS011;10546;50.674;4.616;2022-10-16T16:46:26;3.15;;;1.48;;
20772;SDS011;10546;50.674;4.616;2022-10-16T16:48:51;2.08;;;1.52;;
20772;SDS011;10546;50.674;4.616;2022-10-16T16:51:20;5.43;;;1.85;;
20772;SDS011;10546;50.674;4.616;2022-10-16T16:53:47;4.25;;;2.05;;
20772;SDS011;10546;50.674;4.616;2022-10-16T16:56:14;10.32;;;2.90;;
20772;SDS011;10546;50.674;4.616;2022-10-16T16:58:40;7.13;;;3.30;;
20772;SDS011;10546;50.674;4.616;2022-10-16T17:01:09;4.38;;;2.35;;
20772;SDS011;10546;50.674;4.616;2022-10-16T17:03:35;7.47;;;1.63;;
20772;SDS011;10546;50.674;4.616;2022-10-16T17:06:01;4.10;;;2.00;;
20772;SDS011;10546;50.674;4.616;2022-10-16T17:08:32;5.32;;;2.97;;
20772;SDS011;10546;50.674;4.616;2022-10-16T17:10:58;15.95;;;8.38;;
20772;SDS011;10546;50.674;4.616;2022-10-16T17:13:25;19.30;;;10.40;;
20772;SDS011;10546;50.674;4.616;2022-10-16T17:15:52;13.55;;;7.13;;
20772;SDS011;10546;50.674;4.616;2022-10-16T17:18:18;87.40;;;49.25;;
20772;SDS011;10546;50.674;4.616;2022-10-16T17:20:45;79.45;;;49.92;;
20772;SDS011;10546;50.674;4.616;2022-10-16T17:23:12;48.65;;;30.65;;
20772;SDS011;10546;50.674;4.616;2022-10-16T17:25:39;18.63;;;11.73;;
20772;SDS011;10546;50.674;4.616;2022-10-16T17:28:05;9.25;;;5.60;;
20772;SDS011;10546;50.674;4.616;2022-10-16T17:30:32;10.70;;;6.15;;
20772;SDS011;10546;50.674;4.616;2022-10-16T17:32:59;16.27;;;9.40;;
20772;SDS011;10546;50.674;4.616;2022-10-16T17:35:26;10.13;;;5.35;;
20772;SDS011;10546;50.674;4.616;2022-10-16T17:37:52;10.23;;;5.28;;
20772;SDS011;10546;50.674;4.616;2022-10-16T17:40:18;6.60;;;4.53;;
20772;SDS011;10546;50.674;4.616;2022-10-16T17:42:44;7.18;;;4.82;;
20772;SDS011;10546;50.674;4.616;2022-10-16T17:45:10;12.90;;;8.02;;
20772;SDS011;10546;50.674;4.616;2022-10-16T17:47:36;12.23;;;7.18;;
20772;SDS011;10546;50.674;4.616;2022-10-16T17:50:02;10.10;;;5.20;;